Weather at RAF Castle Archdale/RAF Lough Erne [CLOSED]

Public forecast

Using degrees Celsius for public forecast. Weather courtesy of forecast.io.

Closest aviation weather report (METAR) to RAF Castle Archdale/RAF Lough Erne

Report is more than 6 hours old.

Closest report is Sligo Airport, 32.8 nm (60.7 km) WSW. Retrieved 2022/06/30 17:30 UTC (10 hours ago):

EISG 301730Z 25005KT 9999 BKN013 13/13 Q1011

Closest aviation forecast (TAF) to RAF Castle Archdale/RAF Lough Erne

Closest forecast is Ireland West Knock Airport, 51.4 nm (95.2 km) SW. Retrieved 2022-07-01 00:10 UTC (3 hours ago):

TAF EIKN 302300Z 0100/0124 29006KT 9999 FEW012 BKN035 PROB30 TEMPO 0103/0106 0700 FG BKN001 BECMG 0105/0107 18010KT BECMG 0108/0110 4000 -RA BKN010 TEMPO 0109/0115 2500 RA BKN005 BECMG 0112/0114 18014G25KT BECMG 0114/0116 21012KT TEMPO 0115/0117 2000 SHRA BKN004 SCT017CB BECMG 0116/0118 25010KT 9999 NSW FEW012 BKN017